Time;durP1;ratioP1;P1;durP2;ratioP2;P2;SDS_P1;SDS_P2;PMS_P1;PMS_P2;Temp;Humidity;BMP_temperature;BMP_pressure;BME280_temperature;BME280_humidity;BME280_pressure;Samples;Min_cycle;Max_cycle;Signal;HPM_P1;HPM_P2
2022/05/24 00:00:16;;;;;;;0.00;0.00;;;12.90;99.90;;;;;;5029657;28;20128;-83
2022/05/24 00:02:42;;;;;;;0.10;0.05;;;12.90;99.90;;;;;;5046750;28;20041;-83
2022/05/24 00:05:09;;;;;;;0.10;0.10;;;13.00;99.90;;;;;;5048278;28;20037;-83
2022/05/24 00:07:35;;;;;;;0.40;0.35;;;13.00;99.90;;;;;;5032049;28;20098;-83
2022/05/24 00:10:02;;;;;;;0.40;0.40;;;13.00;99.90;;;;;;5064448;28;20037;-90
2022/05/24 00:12:28;;;;;;;0.30;0.30;;;12.90;99.90;;;;;;5050239;28;20079;-90
2022/05/24 00:17:39;;;;;;;0.10;0.10;;;12.90;99.90;;;;;;5051343;28;20049;-91
2022/05/24 00:20:05;;;;;;;0.43;0.35;;;12.90;99.90;;;;;;5033408;28;20041;-90
2022/05/24 00:22:31;;;;;;;0.10;0.10;;;12.90;99.90;;;;;;5032356;28;20033;-91
2022/05/24 00:25:01;;;;;;;0.10;0.10;;;12.80;99.90;;;;;;5029967;28;20034;-91
2022/05/24 00:27:28;;;;;;;0.63;0.63;;;12.70;99.90;;;;;;5027279;28;20103;-83
2022/05/24 00:29:54;;;;;;;0.10;0.10;;;12.60;99.90;;;;;;5043353;28;20053;-83
2022/05/24 00:32:19;;;;;;;0.25;0.25;;;12.60;99.90;;;;;;5026271;28;20103;-83
2022/05/24 00:34:46;;;;;;;0.20;0.20;;;12.50;99.90;;;;;;5030598;28;20041;-83
2022/05/24 00:37:11;;;;;;;0.30;0.30;;;12.40;99.90;;;;;;5031912;28;20055;-83
2022/05/24 00:39:37;;;;;;;1.08;0.52;;;12.40;99.90;;;;;;5048277;28;20033;-83
2022/05/24 00:42:08;;;;;;;0.35;0.28;;;12.30;99.90;;;;;;5047406;28;20089;-83
2022/05/24 00:44:40;;;;;;;0.17;0.17;;;12.20;99.90;;;;;;5047188;28;20115;-83
2022/05/24 00:47:22;;;;;;;3.35;0.77;;;12.20;99.90;;;;;;5042476;28;20043;-83
2022/05/24 00:49:53;;;;;;;0.63;0.38;;;12.10;99.90;;;;;;5029293;28;20040;-83
2022/05/24 00:52:24;;;;;;;0.10;0.10;;;12.10;99.90;;;;;;5046880;28;20094;-83
2022/05/24 00:54:50;;;;;;;0.30;0.30;;;12.00;99.90;;;;;;5030936;28;20036;-83
2022/05/24 00:57:19;;;;;;;0.30;0.30;;;12.10;99.90;;;;;;5029460;28;20399;-83
2022/05/24 01:00:01;;;;;;;0.00;0.00;;;12.10;99.90;;;;;;5037026;28;20147;-89
2022/05/24 01:02:27;;;;;;;0.10;0.10;;;12.10;99.90;;;;;;5038770;28;20067;-88
2022/05/24 01:04:52;;;;;;;0.10;0.10;;;12.10;99.90;;;;;;5056906;28;20082;-88
2022/05/24 01:07:18;;;;;;;0.17;0.17;;;12.10;99.90;;;;;;5054306;28;20043;-89
2022/05/24 01:10:01;;;;;;;0.45;0.30;;;12.10;99.90;;;;;;5020376;28;20044;-88
2022/05/24 01:12:34;;;;;;;1.13;0.45;;;12.10;99.90;;;;;;5038544;28;20039;-88
2022/05/24 01:15:03;;;;;;;0.80;0.80;;;12.10;99.90;;;;;;5054004;28;20033;-89
2022/05/24 01:17:29;;;;;;;0.03;0.03;;;12.10;99.90;;;;;;5051152;28;20057;-83
2022/05/24 01:19:55;;;;;;;0.43;0.40;;;12.00;99.90;;;;;;5052668;28;20040;-83
2022/05/24 01:22:46;;;;;;;0.60;0.45;;;12.10;99.90;;;;;;5053954;28;20060;-83
2022/05/24 01:25:45;;;;;;;1.00;0.90;;;12.10;99.90;;;;;;5049854;28;20041;-82
2022/05/24 01:28:26;;;;;;;0.20;0.20;;;12.20;99.90;;;;;;5045489;28;20053;-82
2022/05/24 01:30:54;;;;;;;0.00;0.00;;;12.20;99.90;;;;;;5052771;28;20441;-82
2022/05/24 01:36:13;;;;;;;0.95;0.75;;;12.30;99.90;;;;;;5052446;28;20099;-83
2022/05/24 01:38:46;;;;;;;0.10;0.10;;;12.40;99.90;;;;;;5067041;28;20033;-83
2022/05/24 01:41:34;;;;;;;0.30;0.30;;;12.50;99.90;;;;;;5049859;28;20037;-82
2022/05/24 01:44:00;;;;;;;0.20;0.20;;;12.50;99.90;;;;;;5058362;28;20117;-83
2022/05/24 01:46:38;;;;;;;0.00;0.00;;;12.50;99.90;;;;;;5031620;28;20124;-83
2022/05/24 01:49:10;;;;;;;0.57;0.40;;;12.60;99.90;;;;;;5050707;22;20049;-83
2022/05/24 01:51:44;;;;;;;0.15;0.15;;;12.60;99.90;;;;;;5026158;28;20423;-82
2022/05/24 01:54:12;;;;;;;0.25;0.25;;;12.70;99.90;;;;;;5042216;28;20052;-82
2022/05/24 01:57:05;;;;;;;0.22;0.22;;;12.70;99.90;;;;;;5043628;28;20941;-83
2022/05/24 01:59:32;;;;;;;0.60;0.60;;;12.80;99.90;;;;;;5026392;28;20042;-83
2022/05/24 02:02:00;;;;;;;0.38;0.30;;;12.80;99.90;;;;;;5023843;28;20045;-82
2022/05/24 02:04:30;;;;;;;0.30;0.30;;;12.80;99.90;;;;;;5041585;28;20048;-82
2022/05/24 02:07:13;;;;;;;0.63;0.60;;;12.90;99.90;;;;;;5028650;28;20041;-83
2022/05/24 02:09:41;;;;;;;2.20;1.48;;;12.90;99.90;;;;;;5027037;28;20084;-82
2022/05/24 02:12:15;;;;;;;0.52;0.52;;;12.90;99.90;;;;;;5008182;28;20045;-82
2022/05/24 02:14:46;;;;;;;0.70;0.70;;;12.90;99.90;;;;;;5025822;28;20397;-82
2022/05/24 02:17:44;;;;;;;0.68;0.60;;;13.00;99.90;;;;;;5013184;28;20119;-83
2022/05/24 02:20:15;;;;;;;0.38;0.38;;;13.00;99.90;;;;;;5009273;28;20041;-82
2022/05/24 02:22:42;;;;;;;0.80;0.63;;;13.00;99.90;;;;;;5029537;28;20483;-83
2022/05/24 02:25:15;;;;;;;0.25;0.22;;;13.10;99.90;;;;;;5011418;28;20041;-83
2022/05/24 02:27:43;;;;;;;0.10;0.10;;;13.00;99.90;;;;;;5027557;28;20052;-82
2022/05/24 02:30:20;;;;;;;0.22;0.22;;;13.00;99.90;;;;;;5042471;28;20046;-83
2022/05/24 02:32:46;;;;;;;0.22;0.22;;;13.10;99.90;;;;;;5008700;28;20042;-83
2022/05/24 02:35:12;;;;;;;0.05;0.05;;;13.00;99.90;;;;;;5011898;28;20045;-82
2022/05/24 02:37:38;;;;;;;0.25;0.25;;;13.10;99.90;;;;;;5027543;28;20069;-83
2022/05/24 02:42:49;;;;;;;0.03;0.03;;;13.10;99.90;;;;;;5043300;28;20120;-82
2022/05/24 02:45:15;;;;;;;0.30;0.30;;;13.10;99.90;;;;;;5043233;28;20176;-82
2022/05/24 02:47:41;;;;;;;0.50;0.30;;;13.10;99.90;;;;;;5025867;28;20037;-82
2022/05/24 02:50:11;;;;;;;0.57;0.35;;;13.10;99.90;;;;;;5011587;28;20192;-82
2022/05/24 02:52:40;;;;;;;0.30;0.30;;;13.10;99.90;;;;;;5011031;28;20053;-82
2022/05/24 02:55:11;;;;;;;0.00;0.00;;;13.10;99.90;;;;;;5027922;28;20045;-82
2022/05/24 02:57:38;;;;;;;0.30;0.30;;;13.10;99.90;;;;;;5010470;28;20046;-82
2022/05/24 03:00:08;;;;;;;2.78;0.98;;;13.10;99.90;;;;;;5011553;28;20045;-82
2022/05/24 03:02:33;;;;;;;0.00;0.00;;;13.10;99.90;;;;;;5028295;28;20501;-82
2022/05/24 03:05:01;;;;;;;0.15;0.15;;;13.10;99.90;;;;;;5012209;28;20061;-82
2022/05/24 03:10:10;;;;;;;0.98;0.50;;;13.10;99.90;;;;;;5029880;28;20436;-82
2022/05/24 03:15:20;;;;;;;0.10;0.10;;;13.20;99.90;;;;;;5013136;28;20128;-82
2022/05/24 03:17:46;;;;;;;0.30;0.30;;;13.20;99.90;;;;;;5010920;28;20088;-83
2022/05/24 03:20:12;;;;;;;1.10;0.90;;;13.20;99.90;;;;;;5027435;28;20063;-82
2022/05/24 03:22:38;;;;;;;7.07;1.02;;;13.20;99.90;;;;;;5010714;28;20033;-83
2022/05/24 03:25:04;;;;;;;0.30;0.30;;;13.30;99.90;;;;;;5026661;28;20041;-83
2022/05/24 03:27:30;;;;;;;0.38;0.38;;;13.30;99.90;;;;;;5012258;28;20044;-83
2022/05/24 03:29:56;;;;;;;0.57;0.57;;;13.20;99.90;;;;;;5010750;28;20124;-83
2022/05/24 03:32:21;;;;;;;0.57;0.57;;;13.30;99.90;;;;;;5026179;28;20103;-83
2022/05/24 03:34:47;;;;;;;1.45;0.43;;;13.30;99.90;;;;;;5027169;28;20523;-83
2022/05/24 03:37:13;;;;;;;0.10;0.10;;;13.30;99.90;;;;;;4993325;28;20377;-82
2022/05/24 03:39:38;;;;;;;0.55;0.55;;;13.30;99.90;;;;;;5027831;28;20045;-82
2022/05/24 03:42:05;;;;;;;0.25;0.25;;;13.30;99.90;;;;;;5010927;28;20033;-82
2022/05/24 03:44:31;;;;;;;0.40;0.32;;;13.20;99.90;;;;;;5027096;28;20047;-82
2022/05/24 03:46:58;;;;;;;0.95;0.90;;;13.30;99.90;;;;;;5026995;28;20033;-82
2022/05/24 03:49:23;;;;;;;0.50;0.50;;;13.30;99.90;;;;;;5035850;28;20484;-82
2022/05/24 03:51:49;;;;;;;0.32;0.32;;;13.30;99.90;;;;;;4990044;28;20046;-82
2022/05/24 03:54:15;;;;;;;0.28;0.28;;;13.20;99.90;;;;;;5004310;28;20046;-82
2022/05/24 03:59:27;;;;;;;0.40;0.40;;;13.20;99.90;;;;;;5021041;28;20116;-83
2022/05/24 04:01:53;;;;;;;0.40;0.40;;;13.20;99.90;;;;;;4990152;28;20054;-82
2022/05/24 04:04:18;;;;;;;0.20;0.20;;;13.10;99.90;;;;;;4994382;28;20030;-90
2022/05/24 04:06:44;;;;;;;1.00;0.50;;;13.10;99.90;;;;;;4993813;28;20080;-90
2022/05/24 04:09:10;;;;;;;0.22;0.22;;;13.00;99.90;;;;;;4993992;28;20046;-90
2022/05/24 04:11:36;;;;;;;1.35;0.52;;;13.00;99.90;;;;;;4994813;28;20081;-90
2022/05/24 04:14:02;;;;;;;0.13;0.13;;;13.00;99.90;;;;;;4993555;28;20077;-90
2022/05/24 04:16:27;;;;;;;0.50;0.50;;;13.00;99.90;;;;;;5010780;28;20034;-90
2022/05/24 04:18:53;;;;;;;0.10;0.10;;;13.00;99.90;;;;;;5028159;28;20070;-83
2022/05/24 04:21:19;;;;;;;0.20;0.20;;;13.00;99.90;;;;;;4990500;28;20040;-83
2022/05/24 04:23:44;;;;;;;0.47;0.47;;;12.90;99.90;;;;;;4988655;28;20065;-83
2022/05/24 04:26:10;;;;;;;0.55;0.50;;;12.90;99.90;;;;;;4990335;28;20038;-83
2022/05/24 04:28:36;;;;;;;0.00;0.00;;;12.90;99.90;;;;;;4990978;28;20050;-83
2022/05/24 04:31:02;;;;;;;1.08;0.80;;;12.90;99.90;;;;;;4989324;28;20046;-83
2022/05/24 04:33:28;;;;;;;1.65;0.52;;;12.90;99.90;;;;;;4993746;28;20125;-83
2022/05/24 04:35:55;;;;;;;0.40;0.38;;;12.90;99.90;;;;;;5009348;28;20548;-83
2022/05/24 04:38:21;;;;;;;0.10;0.10;;;12.90;99.90;;;;;;5011004;28;20046;-84
2022/05/24 04:43:31;;;;;;;0.20;0.20;;;12.90;99.90;;;;;;5011293;28;20374;-85
2022/05/24 04:45:56;;;;;;;0.10;0.10;;;13.00;99.90;;;;;;5012435;28;20073;-85
2022/05/24 04:48:23;;;;;;;0.25;0.25;;;13.00;99.90;;;;;;5011433;28;20123;-85
2022/05/24 04:50:56;;;;;;;0.60;0.30;;;13.00;99.90;;;;;;5011466;28;20833;-85
2022/05/24 04:53:23;;;;;;;0.10;0.10;;;13.00;99.90;;;;;;5014349;28;20168;-84
2022/05/24 04:55:49;;;;;;;0.63;0.63;;;13.10;99.90;;;;;;5015048;28;20499;-85
2022/05/24 04:58:18;;;;;;;0.10;0.10;;;13.40;99.90;;;;;;5016681;28;20041;-84
2022/05/24 05:00:45;;;;;;;0.10;0.10;;;13.10;99.90;;;;;;5013900;28;20121;-85
2022/05/24 05:03:13;;;;;;;0.68;0.55;;;13.20;99.90;;;;;;5016726;28;20802;-84
2022/05/24 05:05:39;;;;;;;0.55;0.52;;;13.20;99.90;;;;;;5032300;28;20037;-84
2022/05/24 05:08:06;;;;;;;0.10;0.10;;;13.20;99.90;;;;;;5032219;28;20041;-84
2022/05/24 05:10:36;;;;;;;0.22;0.22;;;13.20;99.90;;;;;;5032564;28;20045;-84
2022/05/24 05:13:03;;;;;;;0.35;0.35;;;13.30;99.90;;;;;;5033327;28;20039;-84
2022/05/24 05:15:29;;;;;;;0.17;0.17;;;13.30;99.90;;;;;;5016398;28;20033;-84
2022/05/24 05:18:04;;;;;;;0.35;0.35;;;13.30;99.90;;;;;;5032300;28;20081;-84
2022/05/24 05:20:31;;;;;;;0.35;0.35;;;13.40;99.90;;;;;;5047918;28;20037;-84
2022/05/24 05:22:56;;;;;;;0.73;0.47;;;13.40;99.90;;;;;;4998763;28;20038;-84
2022/05/24 05:25:22;;;;;;;0.38;0.38;;;13.40;99.90;;;;;;5032540;28;20075;-84
2022/05/24 05:27:48;;;;;;;1.00;0.65;;;13.40;99.90;;;;;;5012854;28;20042;-84
2022/05/24 05:33:03;;;;;;;0.20;0.20;;;13.40;99.90;;;;;;5037299;28;20528;-84
2022/05/24 05:35:29;;;;;;;0.73;0.73;;;13.30;99.90;;;;;;5032251;28;20124;-84
2022/05/24 05:37:54;;;;;;;0.63;0.50;;;13.30;99.90;;;;;;5015327;28;20182;-84
2022/05/24 05:40:20;;;;;;;0.10;0.10;;;13.60;99.90;;;;;;5015842;28;20574;-84
2022/05/24 05:42:46;;;;;;;0.45;0.45;;;13.30;99.90;;;;;;5014724;28;20128;-89
2022/05/24 05:45:12;;;;;;;1.85;0.55;;;13.40;99.90;;;;;;5015626;28;20102;-90
2022/05/24 05:47:39;;;;;;;1.00;0.35;;;13.40;99.90;;;;;;5031957;28;20486;-90
2022/05/24 05:50:05;;;;;;;0.65;0.65;;;13.50;99.90;;;;;;5014861;28;20065;-89
2022/05/24 05:52:31;;;;;;;0.43;0.43;;;13.50;99.90;;;;;;5031065;28;20045;-90
2022/05/24 05:54:56;;;;;;;0.35;0.35;;;13.50;99.90;;;;;;5033004;28;20072;-89
2022/05/24 05:57:22;;;;;;;0.52;0.50;;;13.50;99.90;;;;;;5023978;28;20041;-89
2022/05/24 05:59:48;;;;;;;0.20;0.20;;;13.50;99.90;;;;;;5034328;28;20037;-84
2022/05/24 06:02:13;;;;;;;1.08;0.98;;;13.50;99.90;;;;;;5019011;28;20038;-84
2022/05/24 06:04:39;;;;;;;0.25;0.25;;;13.50;99.90;;;;;;5014958;28;20095;-84
2022/05/24 06:07:05;;;;;;;0.25;0.25;;;13.60;99.90;;;;;;5032107;28;20034;-84
2022/05/24 06:09:31;;;;;;;0.30;0.30;;;13.60;99.90;;;;;;5012899;28;20121;-84
2022/05/24 06:11:57;;;;;;;0.10;0.10;;;13.70;99.90;;;;;;5010477;28;20049;-84
2022/05/24 06:14:23;;;;;;;0.00;0.00;;;13.70;99.90;;;;;;5019602;28;20117;-84
2022/05/24 06:16:48;;;;;;;0.43;0.17;;;13.80;99.90;;;;;;5029675;28;20442;-90
2022/05/24 06:19:14;;;;;;;3.10;0.52;;;13.80;99.90;;;;;;5033362;28;20069;-90
2022/05/24 06:21:40;;;;;;;0.10;0.10;;;13.80;99.90;;;;;;5000258;28;20041;-90
2022/05/24 06:24:06;;;;;;;0.10;0.10;;;13.90;99.90;;;;;;5014350;28;20121;-91
2022/05/24 06:26:33;;;;;;;0.10;0.10;;;13.90;99.90;;;;;;5029842;28;20109;-90
2022/05/24 06:29:00;;;;;;;0.25;0.25;;;14.00;99.90;;;;;;5014171;28;20053;-89
2022/05/24 06:31:26;;;;;;;0.25;0.25;;;14.00;99.90;;;;;;5031847;28;20041;-89
2022/05/24 06:33:51;;;;;;;0.32;0.32;;;14.00;99.90;;;;;;5013402;28;20091;-88
2022/05/24 06:36:18;;;;;;;0.03;0.03;;;14.10;99.90;;;;;;5014360;28;20037;-89
2022/05/24 06:38:44;;;;;;;5.47;0.85;;;14.10;99.90;;;;;;5032413;28;20052;-88
2022/05/24 06:41:09;;;;;;;0.25;0.25;;;14.10;99.90;;;;;;5000470;28;20037;-90
2022/05/24 06:43:36;;;;;;;3.33;1.10;;;14.20;99.90;;;;;;4999782;28;20040;-88
2022/05/24 06:46:09;;;;;;;0.65;0.45;;;14.20;99.90;;;;;;5000352;28;20163;-89
2022/05/24 06:48:37;;;;;;;0.00;0.00;;;14.20;99.90;;;;;;4999679;28;20091;-89
2022/05/24 06:51:15;;;;;;;2.63;0.28;;;14.20;99.90;;;;;;5026398;28;20183;-88
2022/05/24 06:53:43;;;;;;;0.10;0.10;;;14.20;99.90;;;;;;5028419;28;20045;-89
2022/05/24 06:56:10;;;;;;;0.00;0.00;;;14.30;99.90;;;;;;5041861;28;20381;-88
2022/05/24 06:58:36;;;;;;;0.20;0.20;;;14.40;99.90;;;;;;5034888;28;20037;-89
2022/05/24 07:03:52;;;;;;;0.90;0.80;;;14.30;99.90;;;;;;5022966;28;20049;-89
2022/05/24 07:06:18;;;;;;;0.10;0.10;;;14.40;99.90;;;;;;5029601;28;20033;-85
2022/05/24 07:08:45;;;;;;;0.15;0.15;;;14.40;99.90;;;;;;5031100;28;20045;-85
2022/05/24 07:11:12;;;;;;;0.57;0.57;;;14.30;99.90;;;;;;5011683;28;20045;-85
2022/05/24 07:13:39;;;;;;;0.15;0.15;;;14.30;99.90;;;;;;5013374;28;20395;-85
2022/05/24 07:16:07;;;;;;;0.22;0.20;;;14.40;99.90;;;;;;5029906;28;20046;-85
2022/05/24 07:18:33;;;;;;;0.30;0.30;;;14.30;99.90;;;;;;5028633;28;20103;-86
2022/05/24 07:20:59;;;;;;;0.32;0.32;;;14.30;99.90;;;;;;5031593;28;20068;-85
2022/05/24 07:23:25;;;;;;;1.20;1.10;;;14.30;99.90;;;;;;5029772;28;22103;-86
2022/05/24 07:25:52;;;;;;;0.00;0.00;;;14.20;99.90;;;;;;5030344;28;20136;-86
2022/05/24 07:28:19;;;;;;;0.00;0.00;;;14.30;99.90;;;;;;5042509;28;20090;-85
2022/05/24 07:30:47;;;;;;;0.28;0.28;;;14.30;99.90;;;;;;4994408;28;20436;-86
2022/05/24 07:33:13;;;;;;;0.00;0.00;;;14.50;99.90;;;;;;5003931;28;20069;-86
2022/05/24 07:35:40;;;;;;;0.30;0.30;;;;;;;;;;5009216;28;20065;-86
2022/05/24 07:38:10;;;;;;;1.05;1.05;;;14.50;99.90;;;;;;5024297;28;20132;-85
2022/05/24 07:46:10;;;;;;;0.35;0.35;;;15.10;99.90;;;;;;5024490;28;20055;-84
2022/05/24 07:48:36;;;;;;;0.10;0.10;;;15.10;99.90;;;;;;5008197;28;20041;-84
2022/05/24 07:51:03;;;;;;;0.30;0.30;;;15.20;99.90;;;;;;4996656;28;20057;-84
2022/05/24 07:53:30;;;;;;;0.10;0.10;;;15.20;99.90;;;;;;5011618;28;20052;-84
2022/05/24 07:55:57;;;;;;;3.60;0.35;;;15.20;99.90;;;;;;5041395;28;20044;-89
2022/05/24 07:58:23;;;;;;;0.30;0.30;;;15.40;99.90;;;;;;5029431;28;20125;-90
2022/05/24 08:00:50;;;;;;;0.17;0.17;;;15.50;99.90;;;;;;5025276;28;20124;-90
2022/05/24 08:03:17;;;;;;;0.20;0.17;;;15.50;99.90;;;;;;5021721;28;20065;-90
2022/05/24 08:05:43;;;;;;;0.63;0.63;;;15.40;99.90;;;;;;5027475;28;20049;-90
2022/05/24 08:08:09;;;;;;;0.00;0.00;;;15.30;99.90;;;;;;5027131;28;20551;-90
2022/05/24 08:10:37;;;;;;;0.30;0.30;;;15.30;99.90;;;;;;5024808;28;20116;-90
2022/05/24 08:13:06;;;;;;;0.28;0.28;;;15.40;99.90;;;;;;5028759;28;20572;-91
2022/05/24 08:15:32;;;;;;;0.10;0.10;;;15.40;99.90;;;;;;5025031;28;20041;-89
2022/05/24 08:17:58;;;;;;;0.75;0.75;;;15.50;99.90;;;;;;5024138;28;20048;-90
2022/05/24 08:20:24;;;;;;;0.20;0.20;;;15.60;99.90;;;;;;5020864;28;20042;-91
2022/05/24 08:22:50;;;;;;;0.15;0.08;;;16.20;99.90;;;;;;5027645;28;20076;-90
2022/05/24 08:25:16;;;;;;;0.10;0.10;;;16.10;99.90;;;;;;4979395;28;20084;-90
2022/05/24 08:27:43;;;;;;;0.28;0.28;;;17.00;99.90;;;;;;5028000;28;20041;-90
2022/05/24 08:30:14;;;;;;;0.10;0.10;;;17.10;99.90;;;;;;5025811;28;20049;-89
2022/05/24 08:32:40;;;;;;;0.30;0.30;;;17.30;99.90;;;;;;5012450;28;20080;-88
2022/05/24 08:35:09;;;;;;;0.22;0.22;;;16.90;99.90;;;;;;4989749;28;20120;-89
2022/05/24 08:37:35;;;;;;;2.08;1.85;;;16.50;99.90;;;;;;4997764;28;20049;-88
2022/05/24 08:40:02;;;;;;;1.20;0.93;;;16.20;99.90;;;;;;5013879;28;20033;-88
2022/05/24 08:42:39;;;;;;;0.13;0.13;;;16.00;99.90;;;;;;5029872;28;20033;-88
2022/05/24 08:48:23;;;;;;;0.22;0.17;;;15.50;99.90;;;;;;5027492;28;20569;-89
2022/05/24 08:51:03;;;;;;;0.20;0.20;;;14.60;99.90;;;;;;5045244;28;20060;-90
2022/05/24 08:53:39;;;;;;;0.45;0.45;;;13.80;99.90;;;;;;5037195;28;20124;-89
2022/05/24 08:56:07;;;;;;;0.10;0.10;;;13.60;99.90;;;;;;5038200;28;20128;-89
2022/05/24 08:58:37;;;;;;;0.10;0.10;;;13.50;99.90;;;;;;5028739;28;20030;-89
2022/05/24 09:01:15;;;;;;;0.10;0.10;;;13.50;99.90;;;;;;5034437;28;20034;-89
2022/05/24 09:03:41;;;;;;;0.17;0.17;;;13.50;99.90;;;;;;5046748;28;20387;-88
2022/05/24 09:06:28;;;;;;;0.43;0.43;;;13.70;99.90;;;;;;5014931;28;20120;-89
2022/05/24 09:09:12;;;;;;;;;;;13.80;99.90;;;;;;5010785;28;20041;-89
2022/05/24 09:11:50;;;;;;;0.00;0.00;;;14.20;99.90;;;;;;5031027;28;20292;-88
2022/05/24 09:14:46;;;;;;;0.10;0.10;;;14.70;99.90;;;;;;5028800;28;20052;-88
2022/05/24 09:17:31;;;;;;;0.00;0.00;;;15.00;99.90;;;;;;5036566;28;21008;-89
2022/05/24 09:19:56;;;;;;;1.65;0.57;;;14.80;99.90;;;;;;5037571;28;20055;-87
2022/05/24 09:22:22;;;;;;;0.10;0.10;;;15.40;99.90;;;;;;5026379;28;20041;-87
2022/05/24 09:25:00;;;;;;;0.00;0.00;;;15.60;99.90;;;;;;5037408;28;20059;-87
2022/05/24 09:27:28;;;;;;;0.22;0.22;;;16.20;99.90;;;;;;5033587;28;20052;-88
2022/05/24 09:30:05;;;;;;;0.00;0.00;;;16.30;99.90;;;;;;5037211;28;20046;-87
2022/05/24 09:32:43;;;;;;;0.00;0.00;;;16.30;99.90;;;;;;5049000;28;20072;-87
2022/05/24 09:35:09;;;;;;;0.55;0.55;;;16.00;99.90;;;;;;5036255;28;20107;-87
2022/05/24 09:37:35;;;;;;;0.98;0.55;;;16.10;99.90;;;;;;5017292;28;20065;-90
2022/05/24 09:40:22;;;;;;;0.15;0.15;;;16.30;99.90;;;;;;5045117;28;20122;-90
2022/05/24 09:42:48;;;;;;;0.55;0.32;;;16.40;99.90;;;;;;5015158;28;20541;-89
2022/05/24 09:45:17;;;;;;;0.10;0.10;;;16.70;99.90;;;;;;5051903;28;20033;-90
2022/05/24 09:47:43;;;;;;;0.93;0.85;;;17.00;99.90;;;;;;5033142;28;20040;-90
2022/05/24 09:50:17;;;;;;;0.10;0.10;;;17.70;99.90;;;;;;5021455;28;20054;-90
2022/05/24 09:53:02;;;;;;;0.10;0.10;;;17.90;99.90;;;;;;5022958;28;20036;-91
2022/05/24 09:55:42;;;;;;;0.00;0.00;;;19.20;99.90;;;;;;5022762;28;20045;-91
2022/05/24 09:58:26;;;;;;;0.10;0.10;;;19.20;99.90;;;;;;5041489;28;20199;-90
2022/05/24 10:01:00;;;;;;;0.10;0.10;;;19.00;99.90;;;;;;5032585;28;20033;-90
2022/05/24 10:03:31;;;;;;;0.30;0.30;;;18.40;99.90;;;;;;5040850;28;20037;-90
2022/05/24 10:06:06;;;;;;;0.10;0.10;;;17.90;99.90;;;;;;5043219;28;20135;-89
2022/05/24 10:08:56;;;;;;;0.20;0.20;;;17.00;99.90;;;;;;5037581;28;20361;-90
2022/05/24 10:11:28;;;;;;;1.85;0.10;;;16.60;99.90;;;;;;5043977;28;20049;-91
2022/05/24 10:14:20;;;;;;;0.00;0.00;;;17.40;99.90;;;;;;5027744;28;20049;-91
2022/05/24 10:17:02;;;;;;;0.30;0.30;;;20.00;99.90;;;;;;5024166;28;20040;-90
2022/05/24 10:19:46;;;;;;;0.00;0.00;;;20.20;99.90;;;;;;5010071;28;20041;-90
2022/05/24 10:22:25;;;;;;;0.05;0.05;;;21.60;99.90;;;;;;5017822;28;20041;-90
2022/05/24 10:25:06;;;;;;;0.10;0.10;;;22.40;99.90;;;;;;5048238;28;20426;-90
2022/05/24 10:27:51;;;;;;;0.05;0.05;;;21.00;99.90;;;;;;5047290;28;20026;-91
2022/05/24 10:30:27;;;;;;;0.10;0.10;;;20.40;99.90;;;;;;5038093;28;20041;-92
2022/05/24 10:39:57;;;;;;;;;;;18.50;99.90;;;;;;5033054;28;20121;-90
2022/05/24 10:42:43;;;;;;;0.45;0.30;;;19.40;99.90;;;;;;5029673;28;19975;-90
2022/05/24 10:45:15;;;;;;;0.08;0.08;;;19.00;99.90;;;;;;5046519;28;20038;-88
2022/05/24 10:47:59;;;;;;;0.45;0.43;;;17.70;99.90;;;;;;5014998;28;20037;-90
2022/05/24 10:50:41;;;;;;;0.10;0.10;;;17.50;99.90;;;;;;5008023;28;20062;-90
2022/05/24 10:53:16;;;;;;;0.28;0.20;;;16.20;99.90;;;;;;5036199;28;20054;-89
2022/05/24 10:56:00;;;;;;;0.10;0.10;;;15.30;99.90;;;;;;5006865;28;20464;-90
2022/05/24 10:58:29;;;;;;;0.00;0.00;;;14.80;99.90;;;;;;5028239;28;20116;-90
2022/05/24 11:01:26;;;;;;;0.32;0.32;;;14.40;99.90;;;;;;5016511;28;20034;-90
2022/05/24 11:03:57;;;;;;;0.00;0.00;;;14.20;99.90;;;;;;5001282;28;20397;-90
2022/05/24 11:06:47;;;;;;;0.10;0.10;;;14.20;99.90;;;;;;5032703;28;20040;-90
2022/05/24 11:09:22;;;;;;;0.00;0.00;;;14.90;99.90;;;;;;5014819;28;20469;-91
2022/05/24 11:11:57;;;;;;;0.15;0.15;;;16.90;99.90;;;;;;5029907;28;20033;-89
2022/05/24 11:14:48;;;;;;;0.22;0.22;;;18.10;99.90;;;;;;5023999;28;20143;-89
2022/05/24 11:17:16;;;;;;;0.00;0.00;;;18.40;99.90;;;;;;5032906;28;20056;-89
2022/05/24 11:19:46;;;;;;;0.10;0.10;;;18.60;99.90;;;;;;5016022;28;20510;-90
2022/05/24 11:22:27;;;;;;;0.00;0.00;;;18.80;99.90;;;;;;5019110;28;20033;-89
2022/05/24 11:25:02;;;;;;;0.10;0.10;;;19.00;99.90;;;;;;5001388;28;20075;-89
2022/05/24 11:27:40;;;;;;;0.05;0.05;;;19.20;99.90;;;;;;5024313;28;20519;-90
2022/05/24 11:30:14;;;;;;;0.00;0.00;;;19.40;99.90;;;;;;5032805;28;20041;-89
2022/05/24 11:33:07;;;;;;;0.10;0.10;;;19.40;99.90;;;;;;5029545;28;20076;-84
2022/05/24 11:35:36;;;;;;;0.10;0.10;;;19.30;99.90;;;;;;5025062;28;20040;-84
2022/05/24 11:38:17;;;;;;;0.10;0.10;;;18.50;99.90;;;;;;5045374;28;20033;-84
2022/05/24 11:40:57;;;;;;;0.00;0.00;;;18.00;99.90;;;;;;5026752;28;20048;-84
2022/05/24 11:43:35;;;;;;;0.10;0.10;;;18.60;99.90;;;;;;5027610;28;20113;-84
2022/05/24 11:46:06;;;;;;;0.00;0.00;;;19.10;99.90;;;;;;5011618;28;20124;-84
2022/05/24 11:48:43;;;;;;;0.00;0.00;;;18.40;99.90;;;;;;5029151;28;20049;-85
2022/05/24 11:51:39;;;;;;;0.10;0.10;;;18.30;99.90;;;;;;4994720;28;20701;-89
2022/05/24 11:54:48;;;;;;;0.00;0.00;;;17.70;99.90;;;;;;5026476;28;20052;-89
2022/05/24 11:57:14;;;;;;;0.50;0.50;;;18.10;99.90;;;;;;5015702;28;20049;-91
2022/05/24 11:59:40;;;;;;;0.00;0.00;;;18.20;99.90;;;;;;4999906;28;20045;-89
2022/05/24 12:07:54;;;;;;;0.32;0.32;;;17.90;99.90;;;;;;5012177;28;20041;-90
2022/05/24 12:08:38;;;;;;;0.10;0.10;;;17.20;99.90;;;;;;5020492;28;20046;-84
2022/05/24 12:11:13;;;;;;;0.00;0.00;;;16.80;99.90;;;;;;5012293;28;20050;-85
2022/05/24 12:13:48;;;;;;;0.00;0.00;;;16.60;99.90;;;;;;5013599;28;20041;-84
2022/05/24 12:16:35;;;;;;;0.00;0.00;;;16.60;99.90;;;;;;5013413;28;20376;-85
2022/05/24 12:19:03;;;;;;;0.00;0.00;;;16.90;99.90;;;;;;5025094;28;20129;-85
2022/05/24 12:21:55;;;;;;;0.05;0.05;;;17.70;99.90;;;;;;4996504;28;20080;-85
2022/05/24 12:24:23;;;;;;;0.00;0.00;;;17.60;99.90;;;;;;5013169;28;20077;-90
2022/05/24 12:27:08;;;;;;;0.00;0.00;;;17.70;99.90;;;;;;5025350;28;20049;-90
2022/05/24 12:29:34;;;;;;;0.00;0.00;;;18.00;99.90;;;;;;4991116;28;20511;-90
2022/05/24 12:32:04;;;;;;;0.15;0.15;;;17.90;99.90;;;;;;4989934;28;20069;-90
2022/05/24 12:34:32;;;;;;;0.10;0.10;;;18.10;99.90;;;;;;5009036;28;20050;-90
2022/05/24 12:37:00;;;;;;;0.00;0.00;;;17.90;99.90;;;;;;4993574;28;20042;-90
2022/05/24 12:39:26;;;;;;;0.10;0.10;;;17.90;99.90;;;;;;4976214;28;20085;-90
2022/05/24 12:41:56;;;;;;;0.00;0.00;;;17.80;99.90;;;;;;5002914;28;20049;-90
2022/05/24 12:44:28;;;;;;;0.10;0.10;;;17.90;99.90;;;;;;5012291;28;20069;-90
2022/05/24 12:47:14;;;;;;;0.00;0.00;;;18.10;99.90;;;;;;5012122;28;20428;-90
2022/05/24 12:49:49;;;;;;;0.00;0.00;;;18.40;99.90;;;;;;5020861;28;20412;-90
2022/05/24 12:52:25;;;;;;;0.03;0.03;;;17.90;99.90;;;;;;5014038;28;20080;-90
2022/05/24 12:54:52;;;;;;;0.00;0.00;;;17.60;99.90;;;;;;5035206;28;20045;-90
2022/05/24 12:57:47;;;;;;;0.05;0.05;;;17.80;99.90;;;;;;5018613;28;20053;-88
2022/05/24 13:00:21;;;;;;;0.00;0.00;;;17.60;99.90;;;;;;5034787;28;20111;-87
2022/05/24 13:02:53;;;;;;;0.00;0.00;;;17.40;99.90;;;;;;5031943;28;20389;-89
2022/05/24 13:05:35;;;;;;;0.05;0.05;;;17.20;99.90;;;;;;4999546;28;20070;-88
2022/05/24 13:08:01;;;;;;;0.65;0.65;;;17.30;99.90;;;;;;5015575;28;20046;-89
2022/05/24 13:10:30;;;;;;;0.00;0.00;;;17.50;99.90;;;;;;5032093;28;20042;-89
2022/05/24 13:13:00;;;;;;;0.03;0.03;;;17.50;99.90;;;;;;5027896;28;20041;-88
2022/05/24 13:15:39;;;;;;;0.00;0.00;;;17.70;99.90;;;;;;5018581;28;20053;-89
2022/05/24 13:18:26;;;;;;;0.28;0.28;;;17.70;99.90;;;;;;5018692;28;20041;-88
2022/05/24 13:20:51;;;;;;;0.00;0.00;;;17.80;99.90;;;;;;5018279;28;20360;-90
2022/05/24 13:23:19;;;;;;;0.00;0.00;;;17.70;99.90;;;;;;5016750;28;20130;-88
2022/05/24 13:25:44;;;;;;;0.13;0.13;;;17.80;99.90;;;;;;5015566;28;20096;-89
2022/05/24 13:28:11;;;;;;;5.28;0.52;;;18.10;99.90;;;;;;5006970;28;20041;-89
2022/05/24 13:33:37;;;;;;;0.35;0.30;;;18.60;99.90;;;;;;5016150;28;20100;-91
2022/05/24 13:36:39;;;;;;;0.00;0.00;;;18.80;99.90;;;;;;5015293;28;20038;-89
2022/05/24 13:39:13;;;;;;;0.20;0.20;;;19.00;99.90;;;;;;5015189;28;20126;-90
2022/05/24 13:42:01;;;;;;;0.45;0.45;;;18.80;99.90;;;;;;5038095;28;20176;-91
2022/05/24 13:44:38;;;;;;;0.10;0.10;;;18.80;99.90;;;;;;5014631;28;20037;-89
2022/05/24 13:47:16;;;;;;;0.70;0.57;;;18.60;99.90;;;;;;5015489;28;20129;-85
2022/05/24 13:49:45;;;;;;;0.00;0.00;;;18.50;99.90;;;;;;5026134;28;20124;-85
2022/05/24 13:52:37;;;;;;;0.20;0.20;;;18.50;99.90;;;;;;5034297;28;20046;-85
2022/05/24 13:55:12;;;;;;;0.10;0.10;;;18.60;99.90;;;;;;5026636;28;20041;-85